createdAt,value
2018-08-13T00:00:55.868Z,5.90
2018-08-13T00:03:23.777Z,6.30
2018-08-13T00:05:51.663Z,6.23
2018-08-13T00:08:19.608Z,5.90
2018-08-13T00:10:47.696Z,5.80
2018-08-13T00:13:15.593Z,5.97
2018-08-13T00:15:43.553Z,5.77
2018-08-13T00:18:12.306Z,5.93
2018-08-13T00:20:40.312Z,5.50
2018-08-13T00:23:08.692Z,5.80
2018-08-13T00:25:36.641Z,5.90
2018-08-13T00:28:05.282Z,6.13
2018-08-13T00:30:34.151Z,6.17
2018-08-13T00:33:02.127Z,6.40
2018-08-13T00:35:30.994Z,6.43
2018-08-13T00:37:58.886Z,5.87
2018-08-13T00:40:26.827Z,5.93
2018-08-13T00:42:54.636Z,5.90
2018-08-13T00:45:22.565Z,5.90
2018-08-13T00:47:50.553Z,5.90
2018-08-13T00:50:18.415Z,6.10
2018-08-13T00:52:46.351Z,5.90
2018-08-13T00:55:15.023Z,6.07
2018-08-13T00:57:42.913Z,5.70
2018-08-13T01:00:18.221Z,5.63
2018-08-13T01:02:46.678Z,5.67
2018-08-13T01:05:15.178Z,5.97
2018-08-13T01:07:43.131Z,5.63
2018-08-13T01:10:14.721Z,5.77
2018-08-13T01:12:43.081Z,6.37
2018-08-13T01:15:12.062Z,5.57
2018-08-13T01:17:41.269Z,5.53
2018-08-13T01:20:10.420Z,6.27
2018-08-13T01:22:38.383Z,6.10
2018-08-13T01:25:07.000Z,6.53
2018-08-13T01:27:34.858Z,5.93
2018-08-13T01:30:02.965Z,5.70
2018-08-13T01:32:31.321Z,6.10
2018-08-13T01:34:59.405Z,5.93
2018-08-13T01:37:27.987Z,6.57
2018-08-13T01:39:56.622Z,5.60
2018-08-13T01:42:24.621Z,5.57
2018-08-13T01:44:52.520Z,5.20
2018-08-13T01:47:20.523Z,5.20
2018-08-13T01:49:48.402Z,5.30
2018-08-13T01:52:17.029Z,5.50
2018-08-13T01:54:45.113Z,5.53
2018-08-13T01:57:13.062Z,6.17
2018-08-13T01:59:41.449Z,5.60
2018-08-13T02:02:09.553Z,5.83
2018-08-13T02:04:37.408Z,5.80
2018-08-13T02:07:05.461Z,6.30
2018-08-13T02:09:35.092Z,6.43
2018-08-13T02:12:03.723Z,6.73
2018-08-13T02:14:32.078Z,5.70
2018-08-13T02:17:00.324Z,6.50
2018-08-13T02:19:29.127Z,6.70
2018-08-13T02:21:57.418Z,5.80
2018-08-13T02:24:25.538Z,6.70
2018-08-13T02:26:53.872Z,6.10
2018-08-13T02:29:21.739Z,6.50
2018-08-13T02:31:49.926Z,6.27
2018-08-13T02:34:17.884Z,5.60
2018-08-13T02:36:45.754Z,6.30
2018-08-13T02:39:13.736Z,6.10
2018-08-13T02:41:41.597Z,5.80
2018-08-13T02:44:09.542Z,6.00
2018-08-13T02:46:37.364Z,5.67
2018-08-13T02:49:05.322Z,6.40
2018-08-13T02:51:34.441Z,6.13
2018-08-13T02:54:02.794Z,6.23
2018-08-13T02:56:30.712Z,6.03
2018-08-13T02:58:58.951Z,5.90
2018-08-13T03:01:26.886Z,5.83
2018-08-13T03:03:54.810Z,5.90
2018-08-13T03:06:22.851Z,6.50
2018-08-13T03:08:50.753Z,6.27
2018-08-13T03:11:18.799Z,6.77
2018-08-13T03:13:46.702Z,6.30
2018-08-13T03:16:14.688Z,6.20
2018-08-13T03:18:42.544Z,6.30
2018-08-13T03:21:10.396Z,6.20
2018-08-13T03:23:38.265Z,6.43
2018-08-13T03:26:06.333Z,6.50
2018-08-13T03:28:34.258Z,6.30
2018-08-13T03:31:02.193Z,6.50
2018-08-13T03:33:30.650Z,7.23
2018-08-13T03:35:58.548Z,7.10
2018-08-13T03:38:26.445Z,7.00
2018-08-13T03:40:54.427Z,6.90
2018-08-13T03:43:22.284Z,7.03
2018-08-13T03:45:50.156Z,6.97
2018-08-13T03:48:18.079Z,7.27
2018-08-13T03:50:45.895Z,7.40
2018-08-13T03:53:13.870Z,7.20
2018-08-13T03:55:41.785Z,7.03
2018-08-13T03:58:09.701Z,6.97
2018-08-13T04:00:37.592Z,7.87
2018-08-13T04:03:06.337Z,6.90
2018-08-13T04:05:34.269Z,7.93
2018-08-13T04:08:02.124Z,7.17
2018-08-13T04:10:30.023Z,6.87
2018-08-13T04:12:57.984Z,7.03
2018-08-13T04:15:25.853Z,7.93
2018-08-13T04:17:53.656Z,7.50
2018-08-13T04:20:21.601Z,7.30
2018-08-13T04:22:49.484Z,7.30
2018-08-13T04:25:17.388Z,7.40
2018-08-13T04:27:45.284Z,7.03
2018-08-13T04:30:14.621Z,7.80
2018-08-13T04:32:43.343Z,7.03
2018-08-13T04:35:11.236Z,8.07
2018-08-13T04:37:39.409Z,7.20
2018-08-13T04:40:09.320Z,6.90
2018-08-13T04:42:37.161Z,7.43
2018-08-13T04:45:05.567Z,7.40
2018-08-13T04:47:33.438Z,7.50
2018-08-13T04:50:01.408Z,7.57
2018-08-13T04:52:29.310Z,7.10
2018-08-13T04:54:57.201Z,8.50
2018-08-13T04:57:25.119Z,7.97
2018-08-13T04:59:53.085Z,7.20
2018-08-13T05:02:20.927Z,7.50
2018-08-13T05:04:48.809Z,6.57
2018-08-13T05:07:16.723Z,7.30
2018-08-13T05:09:44.632Z,6.87
2018-08-13T05:12:12.561Z,6.67
2018-08-13T05:14:40.416Z,6.30
2018-08-13T05:17:08.367Z,6.63
2018-08-13T05:19:36.281Z,7.30
2018-08-13T05:22:04.350Z,6.83
2018-08-13T05:24:32.553Z,6.10
2018-08-13T05:27:00.412Z,5.90
2018-08-13T05:29:28.622Z,6.20
2018-08-13T05:31:57.942Z,5.83
2018-08-13T05:34:27.600Z,6.30
2018-08-13T05:36:57.540Z,5.97
2018-08-13T05:39:27.499Z,5.90
2018-08-13T05:41:56.948Z,5.53
2018-08-13T05:44:27.285Z,6.03
2018-08-13T05:46:57.177Z,5.17
2018-08-13T05:49:27.010Z,5.50
2018-08-13T05:51:57.035Z,5.50
2018-08-13T05:54:26.359Z,5.70
2018-08-13T05:56:56.142Z,4.63
2018-08-13T05:59:25.329Z,5.10
2018-08-13T06:01:55.890Z,4.80
2018-08-13T06:04:24.098Z,5.00
2018-08-13T06:06:52.003Z,4.93
2018-08-13T06:09:21.746Z,4.63
2018-08-13T06:11:50.431Z,4.70
2018-08-13T06:14:20.668Z,4.87
2018-08-13T06:16:50.463Z,4.90
2018-08-13T06:19:19.799Z,4.77
2018-08-13T06:21:48.490Z,5.40
2018-08-13T06:24:17.000Z,4.83
2018-08-13T06:26:46.336Z,4.87
2018-08-13T06:29:16.327Z,4.63
2018-08-13T06:31:44.160Z,4.97
2018-08-13T06:34:12.354Z,4.93
2018-08-13T06:36:41.812Z,4.70
2018-08-13T06:39:12.051Z,4.80
2018-08-13T06:41:40.094Z,4.60
2018-08-13T06:44:08.035Z,4.40
2018-08-13T06:46:36.930Z,4.63
2018-08-13T06:49:06.116Z,4.53
2018-08-13T06:51:34.278Z,4.60
2018-08-13T06:54:02.141Z,4.13
2018-08-13T06:56:30.041Z,4.30
2018-08-13T06:58:57.964Z,4.47
2018-08-13T07:01:25.855Z,4.60
2018-08-13T07:03:53.734Z,4.33
2018-08-13T07:06:21.606Z,4.50
2018-08-13T07:08:49.537Z,4.30
2018-08-13T07:11:17.454Z,4.13
2018-08-13T07:13:45.339Z,4.17
2018-08-13T07:16:13.266Z,4.30
2018-08-13T07:18:41.259Z,4.40
2018-08-13T07:21:09.165Z,4.40
2018-08-13T07:23:37.051Z,4.80
2018-08-13T07:26:04.961Z,4.00
2018-08-13T07:28:32.860Z,4.37
2018-08-13T07:31:00.806Z,4.60
2018-08-13T07:33:28.746Z,4.40
2018-08-13T07:35:56.750Z,4.23
2018-08-13T07:38:24.664Z,4.37
2018-08-13T07:40:52.549Z,4.60
2018-08-13T07:43:20.512Z,4.17
2018-08-13T07:45:48.357Z,5.00
2018-08-13T07:48:16.253Z,4.27
2018-08-13T07:50:44.137Z,4.33
2018-08-13T07:53:12.041Z,4.40
2018-08-13T07:55:39.966Z,4.30
2018-08-13T07:58:08.321Z,4.03
2018-08-13T08:00:36.225Z,4.13
2018-08-13T08:03:04.231Z,4.47
2018-08-13T08:05:32.121Z,4.70
2018-08-13T08:07:59.997Z,4.00
2018-08-13T08:10:27.845Z,5.03
2018-08-13T08:12:55.732Z,4.00
2018-08-13T08:15:23.630Z,4.50
2018-08-13T08:17:51.595Z,4.43
2018-08-13T08:20:19.545Z,4.27
2018-08-13T08:22:47.542Z,4.17
2018-08-13T08:25:16.774Z,4.17
2018-08-13T08:27:45.154Z,4.03
2018-08-13T08:30:13.179Z,3.97
2018-08-13T08:32:41.089Z,4.03
2018-08-13T08:35:10.311Z,4.00
2018-08-13T08:37:38.348Z,3.77
2018-08-13T08:40:07.221Z,3.97
2018-08-13T08:42:35.124Z,3.40
2018-08-13T08:45:03.046Z,4.27
2018-08-13T08:47:31.022Z,3.80
2018-08-13T08:49:59.002Z,3.60
2018-08-13T08:52:26.876Z,3.33
2018-08-13T08:54:54.798Z,3.43
2018-08-13T08:57:22.706Z,2.80
2018-08-13T08:59:50.629Z,3.43
2018-08-13T09:02:18.494Z,3.60
2018-08-13T09:04:46.370Z,3.40
2018-08-13T09:07:14.233Z,3.10
2018-08-13T09:09:42.083Z,2.90
2018-08-13T09:12:09.982Z,3.10
2018-08-13T09:14:37.944Z,3.03
2018-08-13T09:17:05.923Z,3.10
2018-08-13T09:19:39.480Z,2.90
2018-08-13T09:22:13.121Z,2.90
2018-08-13T09:24:46.643Z,3.00
2018-08-13T09:27:20.170Z,2.93
2018-08-13T09:29:53.826Z,3.40
2018-08-13T09:32:28.810Z,3.47
2018-08-13T09:35:00.932Z,3.13
2018-08-13T09:37:28.917Z,2.50
2018-08-13T09:39:56.890Z,2.70
2018-08-13T09:42:25.069Z,2.80
2018-08-13T09:44:53.416Z,3.03
2018-08-13T09:47:21.353Z,3.00
2018-08-13T09:49:49.237Z,2.90
2018-08-13T09:52:17.156Z,3.23
2018-08-13T09:54:45.136Z,2.87
2018-08-13T09:57:13.033Z,2.87
2018-08-13T09:59:41.037Z,3.07
2018-08-13T10:02:08.993Z,3.10
2018-08-13T10:04:36.989Z,2.60
2018-08-13T10:07:04.930Z,2.80
2018-08-13T10:09:32.910Z,2.67
2018-08-13T10:12:01.181Z,2.70
2018-08-13T10:14:29.142Z,2.90
2018-08-13T10:16:57.098Z,3.10
2018-08-13T10:19:25.034Z,2.60
2018-08-13T10:21:52.941Z,2.50
2018-08-13T10:24:20.913Z,2.93
2018-08-13T10:26:48.864Z,3.00
2018-08-13T10:29:16.768Z,2.90
2018-08-13T10:31:44.710Z,2.63
2018-08-13T10:34:12.669Z,2.80
2018-08-13T10:36:40.563Z,3.17
2018-08-13T10:39:09.564Z,2.87
2018-08-13T10:41:37.761Z,2.63
2018-08-13T10:44:06.256Z,2.77
2018-08-13T10:46:35.282Z,2.80
2018-08-13T10:49:03.248Z,2.73
2018-08-13T10:51:31.155Z,3.10
2018-08-13T10:53:59.331Z,3.17
2018-08-13T10:56:27.432Z,2.80
2018-08-13T10:58:55.377Z,2.67
2018-08-13T11:01:23.259Z,2.60
2018-08-13T11:03:51.183Z,2.90
2018-08-13T11:06:19.143Z,2.40
2018-08-13T11:08:47.013Z,2.50
2018-08-13T11:11:14.816Z,2.67
2018-08-13T11:13:42.749Z,2.50
2018-08-13T11:16:10.619Z,2.53
2018-08-13T11:18:38.614Z,2.30
2018-08-13T11:21:06.545Z,2.50
2018-08-13T11:23:34.402Z,2.60
2018-08-13T11:26:02.336Z,2.57
2018-08-13T11:28:30.263Z,2.60
2018-08-13T11:30:58.048Z,2.60
2018-08-13T11:33:25.959Z,2.83
2018-08-13T11:35:53.785Z,2.50
2018-08-13T11:38:21.744Z,2.47
2018-08-13T11:40:49.630Z,2.80
2018-08-13T11:43:17.552Z,2.80
2018-08-13T11:45:45.401Z,2.60
2018-08-13T11:48:13.276Z,2.50
2018-08-13T11:50:41.129Z,2.70
2018-08-13T11:53:09.026Z,3.10
2018-08-13T11:55:36.847Z,2.60
2018-08-13T11:58:04.754Z,2.73
2018-08-13T12:00:32.644Z,2.70
2018-08-13T12:03:00.557Z,2.90
2018-08-13T12:15:16.876Z,2.40
2018-08-13T12:17:45.016Z,2.60
2018-08-13T12:20:14.115Z,2.60
2018-08-13T12:22:42.446Z,2.53
2018-08-13T12:25:10.409Z,2.50
2018-08-13T12:27:38.301Z,2.63
2018-08-13T12:30:07.254Z,2.80
2018-08-13T12:32:35.165Z,2.47
2018-08-13T12:35:03.051Z,2.20
2018-08-13T12:37:30.926Z,2.33
2018-08-13T12:39:58.770Z,2.67
2018-08-13T12:42:26.657Z,2.60
2018-08-13T12:44:54.510Z,2.70
2018-08-13T12:47:22.361Z,2.40
2018-08-13T12:49:50.217Z,2.57
2018-08-13T12:52:18.147Z,2.50
2018-08-13T12:54:46.041Z,2.27
2018-08-13T12:57:14.084Z,2.47
2018-08-13T12:59:42.452Z,2.47
2018-08-13T13:02:10.427Z,2.63
2018-08-13T13:04:38.325Z,2.40
2018-08-13T13:07:06.293Z,2.57
2018-08-13T13:09:34.221Z,2.60
2018-08-13T13:12:02.194Z,2.57
2018-08-13T13:14:30.173Z,2.43
2018-08-13T13:16:58.089Z,2.40
2018-08-13T13:19:25.931Z,2.77
2018-08-13T13:21:53.906Z,2.73
2018-08-13T13:24:21.774Z,2.63
2018-08-13T13:26:49.698Z,2.50
2018-08-13T13:29:17.600Z,2.60
2018-08-13T13:31:45.527Z,2.30
2018-08-13T13:34:13.505Z,2.40
2018-08-13T13:36:41.366Z,2.50
2018-08-13T13:39:09.561Z,2.30
2018-08-13T13:41:37.537Z,2.37
2018-08-13T13:44:05.704Z,2.50
2018-08-13T13:46:33.633Z,2.50
2018-08-13T13:49:01.525Z,2.37
2018-08-13T13:51:29.638Z,2.67
2018-08-13T13:53:57.598Z,2.30
2018-08-13T13:56:25.529Z,2.80
2018-08-13T13:58:53.441Z,2.37
2018-08-13T14:01:21.357Z,2.90
2018-08-13T14:03:49.263Z,2.40
2018-08-13T14:06:17.203Z,2.50
2018-08-13T14:08:45.008Z,2.40
2018-08-13T14:11:12.913Z,2.40
2018-08-13T14:13:40.802Z,2.60
2018-08-13T14:16:08.636Z,2.50
2018-08-13T14:18:36.533Z,2.30
2018-08-13T14:21:04.397Z,2.27
2018-08-13T14:23:32.254Z,2.30
2018-08-13T14:26:00.131Z,2.40
2018-08-13T14:28:27.940Z,2.27
2018-08-13T14:30:55.877Z,2.43
2018-08-13T14:33:23.806Z,2.53
2018-08-13T14:35:51.649Z,2.50
2018-08-13T14:38:19.581Z,2.20
2018-08-13T14:40:48.199Z,2.37
2018-08-13T14:43:16.099Z,2.23
2018-08-13T14:45:44.130Z,2.27
2018-08-13T14:48:11.991Z,2.23
2018-08-13T14:50:39.928Z,2.30
2018-08-13T14:53:07.790Z,2.50
2018-08-13T14:55:35.660Z,2.50
2018-08-13T14:58:03.566Z,3.07
2018-08-13T15:00:33.580Z,2.37
2018-08-13T15:03:01.517Z,2.23
2018-08-13T15:05:29.502Z,2.70
2018-08-13T15:07:57.637Z,2.33
2018-08-13T15:10:25.764Z,2.70
2018-08-13T15:12:53.910Z,2.60
2018-08-13T15:17:30.487Z,2.80
2018-08-13T15:19:58.413Z,3.30
2018-08-13T15:22:26.326Z,2.83
2018-08-13T15:24:54.143Z,2.67
2018-08-13T15:27:22.228Z,2.73
2018-08-13T15:29:50.090Z,2.70
2018-08-13T15:32:17.961Z,3.20
2018-08-13T15:34:45.871Z,3.07
2018-08-13T15:37:13.792Z,2.73
2018-08-13T15:39:41.714Z,2.60
2018-08-13T15:44:18.064Z,2.90
2018-08-13T15:46:45.961Z,2.70
2018-08-13T15:50:17.021Z,3.10
2018-08-13T15:52:45.334Z,2.60
2018-08-13T15:55:13.493Z,2.70
2018-08-13T15:57:41.977Z,3.00
2018-08-13T16:00:10.954Z,2.90
2018-08-13T16:02:38.926Z,2.40
2018-08-13T16:05:07.565Z,2.77
2018-08-13T16:07:35.412Z,2.60
2018-08-13T16:10:04.480Z,3.20
2018-08-13T16:12:32.443Z,2.87
2018-08-13T16:15:00.330Z,2.90
2018-08-13T16:17:28.284Z,2.80
2018-08-13T16:19:56.183Z,2.77
2018-08-13T16:22:24.120Z,2.60
2018-08-13T16:24:51.980Z,2.93
2018-08-13T16:27:19.889Z,2.80
2018-08-13T16:29:47.730Z,2.90
2018-08-13T16:32:15.699Z,2.90
2018-08-13T16:34:43.617Z,3.10
2018-08-13T16:37:11.540Z,2.77
2018-08-13T16:39:39.449Z,2.90
2018-08-13T16:42:07.294Z,3.30
2018-08-13T16:44:35.157Z,2.70
2018-08-13T16:47:03.071Z,2.80
2018-08-13T16:49:31.904Z,3.00
2018-08-13T16:51:59.858Z,3.30
2018-08-13T16:54:27.782Z,3.00
2018-08-13T16:56:55.704Z,3.23
2018-08-13T16:59:23.572Z,3.87
2018-08-13T17:01:51.499Z,3.20
2018-08-13T17:04:19.413Z,3.40
2018-08-13T17:06:47.296Z,3.40
2018-08-13T17:09:15.206Z,3.40
2018-08-13T17:11:43.152Z,3.20
2018-08-13T17:14:12.500Z,2.77
2018-08-13T17:16:41.312Z,3.00
2018-08-13T17:19:09.292Z,3.50
2018-08-13T17:21:37.173Z,3.20
2018-08-13T17:24:05.558Z,3.00
2018-08-13T17:26:33.445Z,3.10
2018-08-13T17:29:01.386Z,3.20
2018-08-13T17:31:29.265Z,3.30
2018-08-13T17:33:57.151Z,3.40
2018-08-13T17:36:25.040Z,3.20
2018-08-13T17:38:52.925Z,2.90
2018-08-13T17:41:20.854Z,3.00
2018-08-13T17:43:48.773Z,3.20
2018-08-13T17:46:16.624Z,3.10
2018-08-13T17:48:44.508Z,3.47
2018-08-13T17:51:12.324Z,3.47
2018-08-13T17:53:40.293Z,3.23
2018-08-13T17:56:08.237Z,3.47
2018-08-13T17:58:36.077Z,3.30
2018-08-13T18:01:03.979Z,3.33
2018-08-13T18:03:31.976Z,3.10
2018-08-13T18:05:59.913Z,3.27
2018-08-13T18:08:27.841Z,3.57
2018-08-13T18:10:55.676Z,3.53
2018-08-13T18:13:23.596Z,3.73
2018-08-13T18:15:51.528Z,3.80
2018-08-13T18:18:19.442Z,3.60
2018-08-13T18:20:47.325Z,3.43
2018-08-13T18:23:15.264Z,3.50
2018-08-13T18:25:43.109Z,3.50
2018-08-13T18:28:11.021Z,3.47
2018-08-13T18:30:38.938Z,3.60
2018-08-13T18:33:06.889Z,3.77
2018-08-13T18:35:34.822Z,3.30
2018-08-13T18:38:02.789Z,3.50
2018-08-13T18:40:31.131Z,3.33
2018-08-13T18:42:59.976Z,3.33
2018-08-13T18:45:27.942Z,3.40
2018-08-13T18:47:55.877Z,3.57
2018-08-13T18:50:23.725Z,3.40
2018-08-13T18:52:51.890Z,3.57
2018-08-13T19:00:15.942Z,3.83
2018-08-13T19:02:43.853Z,3.50
2018-08-13T19:05:12.626Z,4.00
2018-08-13T19:07:40.541Z,4.00
2018-08-13T19:10:09.719Z,3.30
2018-08-13T19:12:37.593Z,3.93
2018-08-13T19:15:06.292Z,3.87
2018-08-13T19:17:34.222Z,3.70
2018-08-13T19:20:02.172Z,4.27
2018-08-13T19:22:30.101Z,4.40
2018-08-13T19:24:58.028Z,3.60
2018-08-13T19:27:25.962Z,4.83
2018-08-13T19:29:53.805Z,4.50
2018-08-13T19:32:21.824Z,4.40
2018-08-13T19:34:49.770Z,4.50
2018-08-13T19:37:17.693Z,3.80
2018-08-13T19:39:45.543Z,4.33
2018-08-13T19:42:13.584Z,4.40
2018-08-13T19:44:41.509Z,4.40
2018-08-13T19:47:10.049Z,4.35
2018-08-13T19:49:37.981Z,4.13
2018-08-13T19:52:06.481Z,4.07
2018-08-13T19:54:34.674Z,4.10
2018-08-13T19:57:02.607Z,4.30
2018-08-13T19:59:30.475Z,4.20
2018-08-13T20:01:58.682Z,4.30
2018-08-13T20:04:26.613Z,4.40
2018-08-13T20:06:54.455Z,4.70
2018-08-13T20:09:22.346Z,4.03
2018-08-13T20:11:53.928Z,4.53
2018-08-13T20:14:22.536Z,4.53
2018-08-13T20:16:50.515Z,4.37
2018-08-13T20:19:18.385Z,4.67
2018-08-13T20:21:46.224Z,4.23
2018-08-13T20:24:14.180Z,4.33
2018-08-13T20:26:42.231Z,4.50
2018-08-13T20:29:10.232Z,4.60
2018-08-13T20:31:38.150Z,3.80
2018-08-13T20:34:06.685Z,4.10
2018-08-13T20:36:34.613Z,4.83
2018-08-13T20:39:02.486Z,4.40
2018-08-13T20:41:30.411Z,4.30
2018-08-13T20:43:58.352Z,4.57
2018-08-13T20:46:26.305Z,4.70
2018-08-13T20:48:54.270Z,4.53
2018-08-13T20:51:22.159Z,4.60
2018-08-13T20:53:50.113Z,4.67
2018-08-13T20:56:18.058Z,5.03
2018-08-13T20:58:45.936Z,5.20
2018-08-13T21:01:13.827Z,5.10
2018-08-13T21:03:41.742Z,5.10
2018-08-13T21:06:09.625Z,5.23
2018-08-13T21:08:37.518Z,5.37
2018-08-13T21:11:05.469Z,5.20
2018-08-13T21:13:34.429Z,4.70
2018-08-13T21:16:02.439Z,4.93
2018-08-13T21:18:30.366Z,5.03
2018-08-13T21:20:58.246Z,5.50
2018-08-13T21:23:26.107Z,6.23
2018-08-13T21:25:53.979Z,5.17
2018-08-13T21:28:21.907Z,6.53
2018-08-13T21:30:49.858Z,6.50
2018-08-13T21:33:17.725Z,5.33
2018-08-13T21:35:45.618Z,5.60
2018-08-13T21:38:13.534Z,5.90
2018-08-13T21:40:41.409Z,6.70
2018-08-13T21:43:09.281Z,5.77
2018-08-13T21:45:37.257Z,5.27
2018-08-13T21:48:05.289Z,5.27
2018-08-13T21:50:33.207Z,6.10
2018-08-13T21:53:01.076Z,5.63
2018-08-13T21:55:29.046Z,6.40
2018-08-13T21:57:56.940Z,5.83
2018-08-13T22:00:26.142Z,6.40
2018-08-13T22:02:54.341Z,6.20
2018-08-13T22:05:22.356Z,5.30
2018-08-13T22:07:50.279Z,6.60
2018-08-13T22:10:18.136Z,6.20
2018-08-13T22:12:46.049Z,5.63
2018-08-13T22:15:18.549Z,5.43
2018-08-13T22:17:46.515Z,5.97
2018-08-13T22:20:14.380Z,5.70
2018-08-13T22:22:42.325Z,6.47
2018-08-13T22:25:12.869Z,6.83
2018-08-13T22:27:40.815Z,6.80
2018-08-13T22:30:09.473Z,7.30
2018-08-13T22:32:37.373Z,7.07
2018-08-13T22:35:06.790Z,6.70
2018-08-13T22:37:34.971Z,6.20
2018-08-13T22:40:02.900Z,6.47
2018-08-13T22:42:31.044Z,6.10
2018-08-13T22:44:59.586Z,5.87
2018-08-13T22:47:27.490Z,6.50
2018-08-13T22:49:56.187Z,5.90
2018-08-13T22:52:24.097Z,5.83
2018-08-13T22:54:52.047Z,6.30
2018-08-13T22:57:19.858Z,5.83
2018-08-13T22:59:47.786Z,5.93
2018-08-13T23:02:15.682Z,6.17
2018-08-13T23:04:43.551Z,5.90
2018-08-13T23:07:11.461Z,5.97
2018-08-13T23:09:39.375Z,6.40
2018-08-13T23:12:09.096Z,5.73
2018-08-13T23:14:37.071Z,5.73
2018-08-13T23:17:04.972Z,6.63
2018-08-13T23:19:32.854Z,5.90
2018-08-13T23:22:00.875Z,6.33
2018-08-13T23:24:29.012Z,6.27
2018-08-13T23:26:56.973Z,6.60
2018-08-13T23:29:24.809Z,6.60
2018-08-13T23:31:52.700Z,6.00
2018-08-13T23:34:20.586Z,5.50
2018-08-13T23:36:49.424Z,6.43
2018-08-13T23:39:17.330Z,6.40
2018-08-13T23:41:45.182Z,6.13
2018-08-13T23:44:13.007Z,6.10
2018-08-13T23:46:41.128Z,6.73
2018-08-13T23:49:09.051Z,6.00
2018-08-13T23:51:36.966Z,6.23
2018-08-13T23:54:04.853Z,6.80
2018-08-13T23:56:32.740Z,6.47
2018-08-13T23:59:00.619Z,6.30
